createdAt,value
2019-05-02T00:02:01.373Z,6.80
2019-05-02T00:04:32.695Z,6.80
2019-05-02T00:09:47.709Z,6.70
2019-05-02T00:12:18.381Z,6.60
2019-05-02T00:14:49.853Z,6.60
2019-05-02T00:17:25.537Z,6.60
2019-05-02T00:19:56.166Z,6.60
2019-05-02T00:22:27.495Z,6.50
2019-05-02T00:24:58.941Z,6.50
2019-05-02T00:27:32.803Z,6.40
2019-05-02T00:30:03.329Z,6.40
2019-05-02T00:32:35.329Z,6.40
2019-05-02T00:35:07.945Z,6.40
2019-05-02T00:37:39.382Z,6.30
2019-05-02T00:40:10.788Z,6.30
2019-05-02T00:42:43.165Z,6.30
2019-05-02T00:45:18.722Z,6.30
2019-05-02T00:47:53.816Z,6.20
2019-05-02T00:50:26.352Z,6.20
2019-05-02T00:52:57.793Z,6.20
2019-05-02T00:55:33.753Z,6.10
2019-05-02T00:58:02.171Z,6.10
2019-05-02T01:00:42.338Z,6.10
2019-05-02T01:03:16.258Z,6.10
2019-05-02T01:05:46.701Z,6.00
2019-05-02T01:08:18.059Z,6.00
2019-05-02T01:10:52.069Z,6.00
2019-05-02T01:13:22.550Z,6.00
2019-05-02T01:15:53.894Z,6.00
2019-05-02T01:18:25.248Z,5.90
2019-05-02T01:20:58.164Z,5.90
2019-05-02T01:23:29.661Z,5.90
2019-05-02T01:26:01.008Z,5.80
2019-05-02T01:28:55.608Z,5.80
2019-05-02T01:31:49.892Z,5.70
2019-05-02T01:34:41.579Z,5.70
2019-05-02T01:37:34.708Z,5.70
2019-05-02T01:40:06.528Z,5.60
2019-05-02T01:42:40.102Z,5.60
2019-05-02T01:45:12.475Z,5.60
2019-05-02T01:47:44.028Z,5.50
2019-05-02T01:50:15.672Z,5.50
2019-05-02T01:52:46.981Z,5.50
2019-05-02T01:55:21.208Z,5.50
2019-05-02T01:57:51.509Z,5.40
2019-05-02T02:00:22.903Z,5.40
2019-05-02T02:02:54.212Z,5.40
2019-05-02T02:05:27.638Z,5.30
2019-05-02T02:07:58.591Z,5.30
2019-05-02T02:10:30.031Z,5.30
2019-05-02T02:13:04.814Z,5.20
2019-05-02T02:15:34.391Z,5.20
2019-05-02T02:18:06.502Z,5.20
2019-05-02T02:20:56.783Z,5.10
2019-05-02T02:23:44.973Z,5.10
2019-05-02T02:26:16.526Z,5.10
2019-05-02T02:28:47.845Z,5.10
2019-05-02T02:31:22.223Z,5.00
2019-05-02T02:33:53.592Z,5.00
2019-05-02T02:36:31.531Z,5.00
2019-05-02T02:38:58.016Z,5.00
2019-05-02T02:41:29.344Z,4.90
2019-05-02T02:44:10.473Z,4.90
2019-05-02T02:46:43.755Z,4.90
2019-05-02T02:49:21.801Z,4.90
2019-05-02T02:51:48.231Z,4.90
2019-05-02T02:54:19.549Z,4.90
2019-05-02T02:56:50.976Z,4.80
2019-05-02T02:59:26.360Z,4.80
2019-05-02T03:01:55.405Z,4.80
2019-05-02T03:04:26.738Z,4.80
2019-05-02T03:06:58.058Z,4.80
2019-05-02T03:09:29.385Z,4.80
2019-05-02T03:12:18.616Z,4.80
2019-05-02T03:14:54.439Z,4.80
2019-05-02T03:17:28.437Z,4.80
2019-05-02T03:20:01.162Z,4.80
2019-05-02T03:22:34.812Z,4.80
2019-05-02T03:25:05.619Z,4.70
2019-05-02T03:27:40.226Z,4.70
2019-05-02T03:30:29.176Z,4.60
2019-05-02T03:33:03.396Z,4.60
2019-05-02T03:35:18.767Z,4.50
2019-05-02T03:37:51.358Z,4.50
2019-05-02T03:40:23.132Z,4.50
2019-05-02T03:42:54.612Z,4.40
2019-05-02T03:45:32.306Z,4.40
2019-05-02T03:47:59.173Z,4.40
2019-05-02T03:50:32.475Z,4.40
2019-05-02T03:53:03.799Z,4.40
2019-05-02T03:55:35.529Z,4.30
2019-05-02T03:58:14.326Z,4.30
2019-05-02T04:00:39.949Z,4.30
2019-05-02T04:03:11.781Z,4.30
2019-05-02T04:05:43.190Z,4.40
2019-05-02T04:08:20.717Z,4.40
2019-05-02T04:11:32.887Z,4.40
2019-05-02T04:14:00.379Z,4.40
2019-05-02T04:16:31.917Z,4.40
2019-05-02T04:19:04.477Z,4.50
2019-05-02T04:21:37.009Z,4.50
2019-05-02T04:24:13.400Z,4.60
2019-05-02T04:26:52.062Z,4.60
2019-05-02T04:29:16.902Z,4.70
2019-05-02T04:31:48.347Z,4.70
2019-05-02T04:34:19.669Z,4.80
2019-05-02T04:36:59.405Z,4.80
2019-05-02T04:39:24.073Z,4.90
2019-05-02T04:41:58.412Z,4.90
2019-05-02T04:44:29.738Z,5.00
2019-05-02T04:47:13.741Z,5.10
2019-05-02T04:49:36.255Z,5.20
2019-05-02T04:52:11.612Z,5.20
2019-05-02T04:54:40.751Z,5.30
2019-05-02T04:57:12.070Z,5.40
2019-05-02T04:59:43.419Z,5.50
2019-05-02T05:02:21.299Z,5.60
2019-05-02T05:04:49.432Z,5.70
2019-05-02T05:07:22.094Z,5.80
2019-05-02T05:09:58.343Z,6.00
2019-05-02T05:12:27.785Z,6.10
2019-05-02T05:15:00.410Z,6.30
2019-05-02T05:17:34.028Z,6.60
2019-05-02T05:20:10.705Z,6.80
2019-05-02T05:22:44.273Z,7.00
2019-05-02T05:25:17.740Z,7.30
2019-05-02T05:27:52.782Z,7.50
2019-05-02T05:30:23.247Z,7.70
2019-05-02T05:32:54.595Z,7.90
2019-05-02T05:35:27.724Z,8.20
2019-05-02T05:37:59.071Z,8.40
2019-05-02T05:40:32.101Z,8.70
2019-05-02T05:43:12.108Z,8.90
2019-05-02T05:45:48.760Z,9.20
2019-05-02T05:48:09.558Z,9.50
2019-05-02T05:50:41.491Z,9.70
2019-05-02T05:53:17.271Z,10.00
2019-05-02T05:55:47.377Z,10.20
2019-05-02T05:58:19.825Z,10.40
2019-05-02T06:00:55.421Z,10.60
2019-05-02T06:03:24.199Z,10.80
2019-05-02T06:05:57.588Z,11.00
2019-05-02T06:08:28.791Z,11.20
2019-05-02T06:11:00.142Z,11.30
2019-05-02T06:13:31.515Z,11.50
2019-05-02T06:16:03.407Z,11.70
2019-05-02T06:18:36.223Z,12.00
2019-05-02T06:21:09.237Z,12.20
2019-05-02T06:23:41.673Z,12.40
2019-05-02T06:26:15.213Z,12.60
2019-05-02T06:28:46.172Z,12.90
2019-05-02T06:31:17.548Z,13.10
2019-05-02T06:33:48.934Z,13.30
2019-05-02T06:36:20.287Z,13.50
2019-05-02T06:38:56.756Z,13.70
2019-05-02T06:41:27.774Z,14.00
2019-05-02T06:43:59.157Z,14.20
2019-05-02T06:46:31.563Z,14.50
2019-05-02T06:49:03.035Z,14.70
2019-05-02T06:51:34.401Z,14.90
2019-05-02T06:54:05.951Z,15.20
2019-05-02T06:56:37.394Z,15.30
2019-05-02T06:59:13.144Z,15.50
2019-05-02T07:01:41.971Z,15.80
2019-05-02T07:04:17.421Z,16.10
2019-05-02T07:06:58.178Z,16.30
2019-05-02T07:09:19.627Z,16.50
2019-05-02T07:11:57.319Z,16.70
2019-05-02T07:14:25.626Z,17.00
2019-05-02T07:17:05.710Z,17.20
2019-05-02T07:19:40.592Z,17.40
2019-05-02T07:22:11.935Z,17.50
2019-05-02T07:24:43.309Z,17.70
2019-05-02T07:27:14.690Z,17.90
2019-05-02T07:29:46.094Z,18.20
2019-05-02T07:32:19.330Z,18.40
2019-05-02T07:34:50.488Z,18.50
2019-05-02T07:37:21.833Z,18.60
2019-05-02T07:39:53.254Z,18.90
2019-05-02T07:42:24.665Z,19.20
2019-05-02T07:44:56.043Z,19.50
2019-05-02T07:47:28.955Z,19.70
2019-05-02T07:50:00.520Z,19.90
2019-05-02T07:52:33.752Z,20.00
2019-05-02T07:55:07.390Z,20.00
2019-05-02T07:57:38.658Z,20.00
2019-05-02T08:00:11.733Z,20.00
2019-05-02T08:02:43.084Z,20.10
2019-05-02T08:05:21.363Z,20.30
2019-05-02T08:07:53.391Z,20.30
2019-05-02T08:10:23.883Z,20.40
2019-05-02T08:12:54.578Z,20.30
2019-05-02T08:15:25.932Z,20.30
2019-05-02T08:17:57.397Z,20.30
2019-05-02T08:20:28.741Z,20.30
2019-05-02T08:23:00.110Z,20.30
2019-05-02T08:25:31.513Z,20.30
2019-05-02T08:28:21.762Z,20.20
2019-05-02T08:30:56.236Z,20.10
2019-05-02T08:33:29.269Z,20.20
2019-05-02T08:36:00.737Z,20.30
2019-05-02T08:38:32.086Z,20.60
2019-05-02T08:41:03.464Z,20.80
2019-05-02T08:43:34.903Z,20.90
2019-05-02T08:46:09.390Z,21.00
2019-05-02T08:48:41.999Z,21.20
2019-05-02T08:51:12.510Z,21.30
2019-05-02T08:53:43.935Z,21.40
2019-05-02T08:56:16.502Z,21.50
2019-05-02T08:58:49.820Z,21.60
2019-05-02T09:01:33.987Z,21.70
2019-05-02T09:03:56.585Z,21.90
2019-05-02T09:06:27.525Z,21.90
2019-05-02T09:08:58.970Z,21.90
2019-05-02T09:11:30.303Z,22.10
2019-05-02T09:14:02.161Z,22.40
2019-05-02T09:16:33.442Z,22.50
2019-05-02T09:19:04.875Z,22.70
2019-05-02T09:21:36.233Z,22.80
2019-05-02T09:24:08.498Z,22.90
2019-05-02T09:26:42.527Z,23.10
2019-05-02T09:29:13.718Z,23.30
2019-05-02T09:31:46.164Z,23.40
2019-05-02T09:34:22.956Z,23.60
2019-05-02T09:36:52.779Z,23.80
2019-05-02T09:39:27.370Z,24.10
2019-05-02T09:41:56.976Z,24.40
2019-05-02T09:44:28.339Z,24.60
2019-05-02T09:46:59.691Z,24.90
2019-05-02T09:49:32.448Z,25.30
2019-05-02T09:52:03.956Z,25.70
2019-05-02T09:54:37.135Z,25.90
2019-05-02T09:57:08.772Z,26.00
2019-05-02T09:59:43.463Z,26.20
2019-05-02T10:02:13.197Z,26.30
2019-05-02T10:04:44.564Z,26.70
2019-05-02T10:07:15.996Z,26.90
2019-05-02T10:09:48.522Z,26.40
2019-05-02T10:12:19.920Z,26.20
2019-05-02T10:14:52.687Z,26.00
2019-05-02T10:17:24.949Z,25.70
2019-05-02T10:19:57.292Z,25.70
2019-05-02T10:22:32.275Z,26.00
2019-05-02T10:25:02.555Z,26.10
2019-05-02T10:27:38.454Z,26.30
2019-05-02T10:30:15.291Z,26.50
2019-05-02T10:32:42.785Z,26.40
2019-05-02T10:35:16.798Z,26.20
2019-05-02T10:37:48.203Z,26.50
2019-05-02T10:40:19.545Z,26.70
2019-05-02T10:42:52.234Z,27.20
2019-05-02T10:45:23.727Z,27.80
2019-05-02T10:47:55.063Z,28.10
2019-05-02T10:50:32.970Z,28.30
2019-05-02T10:53:11.241Z,28.40
2019-05-02T10:55:38.467Z,28.70
2019-05-02T10:58:09.856Z,28.60
2019-05-02T11:00:45.116Z,28.30
2019-05-02T11:03:43.759Z,28.30
2019-05-02T11:06:15.661Z,27.90
2019-05-02T11:08:47.005Z,27.20
2019-05-02T11:11:18.529Z,26.80
2019-05-02T11:14:14.869Z,27.20
2019-05-02T11:16:57.147Z,27.60
2019-05-02T11:19:42.007Z,27.80
2019-05-02T11:22:13.563Z,28.00
2019-05-02T11:24:45.017Z,28.40
2019-05-02T11:27:16.359Z,28.90
2019-05-02T11:29:47.701Z,29.40
2019-05-02T11:32:19.110Z,29.50
2019-05-02T11:34:52.289Z,29.70
2019-05-02T11:37:23.535Z,29.50
2019-05-02T11:40:00.124Z,29.00
2019-05-02T11:42:32.344Z,28.80
2019-05-02T11:45:04.345Z,28.80
2019-05-02T11:47:35.715Z,28.40
2019-05-02T11:50:07.291Z,27.60
2019-05-02T11:52:38.662Z,27.20
2019-05-02T11:55:10.123Z,26.70
2019-05-02T11:57:42.552Z,26.80
2019-05-02T12:00:14.662Z,27.30
2019-05-02T12:03:05.161Z,27.60
2019-05-02T12:05:41.939Z,27.30
2019-05-02T12:08:13.470Z,27.50
2019-05-02T12:10:45.006Z,28.10
2019-05-02T12:13:16.406Z,28.20
2019-05-02T12:15:47.769Z,27.80
2019-05-02T12:18:21.169Z,27.20
2019-05-02T12:20:52.299Z,27.10
2019-05-02T12:23:23.698Z,27.50
2019-05-02T12:25:55.446Z,28.00
2019-05-02T12:28:26.799Z,28.60
2019-05-02T12:30:58.162Z,28.70
2019-05-02T12:33:33.691Z,28.60
2019-05-02T12:36:08.270Z,28.40
2019-05-02T12:38:42.037Z,28.70
2019-05-02T12:41:22.277Z,29.00
2019-05-02T12:43:46.632Z,29.00
2019-05-02T12:46:18.025Z,28.90
2019-05-02T12:48:49.422Z,29.50
2019-05-02T12:51:22.510Z,29.80
2019-05-02T12:53:54.075Z,29.80
2019-05-02T12:56:25.405Z,29.00
2019-05-02T12:58:56.859Z,28.20
2019-05-02T13:01:28.280Z,27.50
2019-05-02T13:04:12.398Z,27.20
2019-05-02T13:06:43.948Z,27.10
2019-05-02T13:09:16.306Z,27.20
2019-05-02T13:12:00.215Z,27.00
2019-05-02T13:14:32.524Z,26.70
2019-05-02T13:17:05.770Z,27.10
2019-05-02T13:19:41.214Z,27.70
2019-05-02T13:22:32.579Z,28.20
2019-05-02T13:25:12.809Z,27.50
2019-05-02T13:27:48.024Z,26.50
2019-05-02T13:30:46.221Z,25.80
2019-05-02T13:33:22.750Z,25.60
2019-05-02T13:35:56.823Z,25.80
2019-05-02T13:38:28.543Z,26.20
2019-05-02T13:40:59.991Z,26.00
2019-05-02T13:43:37.017Z,25.70
2019-05-02T13:46:13.661Z,25.20
2019-05-02T13:48:46.093Z,24.90
2019-05-02T13:51:18.326Z,24.60
2019-05-02T13:53:56.036Z,24.10
2019-05-02T13:56:46.342Z,24.40
2019-05-02T13:59:19.334Z,24.90
2019-05-02T14:01:53.825Z,25.60
2019-05-02T14:04:25.463Z,26.40
2019-05-02T14:06:56.811Z,27.10
2019-05-02T14:09:58.150Z,27.70
2019-05-02T14:12:58.989Z,27.90
2019-05-02T14:15:37.786Z,28.00
2019-05-02T14:18:09.279Z,28.10
2019-05-02T14:20:42.640Z,28.30
2019-05-02T14:23:13.877Z,28.70
2019-05-02T14:25:46.329Z,28.40
2019-05-02T14:28:17.752Z,28.60
2019-05-02T14:30:49.131Z,28.90
2019-05-02T14:33:23.414Z,29.50
2019-05-02T14:35:54.812Z,29.50
2019-05-02T14:38:26.157Z,29.50
2019-05-02T14:41:06.447Z,30.00
2019-05-02T14:43:55.248Z,30.40
2019-05-02T14:46:35.398Z,30.10
2019-05-02T14:49:00.107Z,29.60
2019-05-02T14:51:33.054Z,29.20
2019-05-02T14:54:08.369Z,28.90
2019-05-02T14:57:03.279Z,29.00
2019-05-02T14:59:34.628Z,30.00
2019-05-02T15:02:09.087Z,30.30
2019-05-02T15:04:44.604Z,30.50
2019-05-02T15:07:17.540Z,31.10
2019-05-02T15:09:47.485Z,31.30
2019-05-02T15:12:19.192Z,30.90
2019-05-02T15:14:57.435Z,30.40
2019-05-02T15:17:28.033Z,30.20
2019-05-02T15:19:56.773Z,29.60
2019-05-02T15:22:33.167Z,29.30
2019-05-02T15:25:02.836Z,29.10
2019-05-02T15:27:41.944Z,28.70
2019-05-02T15:30:08.969Z,28.30
2019-05-02T15:33:05.299Z,28.30
2019-05-02T15:35:57.373Z,28.30
2019-05-02T15:38:28.229Z,28.30
2019-05-02T15:41:07.010Z,27.90
2019-05-02T15:43:32.757Z,27.70
2019-05-02T15:46:04.159Z,27.50
2019-05-02T15:48:35.618Z,27.30
2019-05-02T15:51:08.922Z,27.10
2019-05-02T15:54:05.246Z,27.00
2019-05-02T15:56:28.030Z,27.00
2019-05-02T15:59:04.741Z,27.10
2019-05-02T16:01:57.205Z,27.30
2019-05-02T16:04:33.963Z,26.90
2019-05-02T16:07:08.369Z,26.80
2019-05-02T16:09:38.808Z,27.20
2019-05-02T16:12:12.045Z,27.60
2019-05-02T16:14:43.258Z,28.00
2019-05-02T16:17:17.638Z,28.10
2019-05-02T16:19:52.534Z,28.10
2019-05-02T16:22:24.519Z,28.20
2019-05-02T16:24:56.723Z,28.50
2019-05-02T16:27:47.392Z,29.30
2019-05-02T16:30:23.177Z,29.70
2019-05-02T16:32:59.359Z,30.10
2019-05-02T16:35:32.455Z,29.90
2019-05-02T16:38:03.827Z,29.50
2019-05-02T16:40:35.212Z,28.90
2019-05-02T16:43:07.271Z,28.80
2019-05-02T16:45:39.141Z,28.60
2019-05-02T16:48:12.017Z,28.80
2019-05-02T16:50:45.060Z,28.70
2019-05-02T16:53:17.223Z,27.70
2019-05-02T16:55:49.682Z,26.90
2019-05-02T16:58:21.115Z,26.10
2019-05-02T17:00:52.897Z,25.30
2019-05-02T17:03:26.341Z,24.50
2019-05-02T17:05:57.386Z,23.90
2019-05-02T17:08:44.447Z,23.90
2019-05-02T17:11:27.754Z,23.90
2019-05-02T17:14:02.146Z,23.60
2019-05-02T17:16:33.425Z,23.10
2019-05-02T17:19:04.995Z,22.70
2019-05-02T17:21:52.463Z,22.30
2019-05-02T17:24:09.446Z,21.80
2019-05-02T17:26:42.280Z,21.30
2019-05-02T17:29:16.399Z,20.90
2019-05-02T17:31:50.081Z,20.50
2019-05-02T17:34:23.039Z,20.20
2019-05-02T17:36:52.929Z,19.90
2019-05-02T17:39:24.407Z,19.70
2019-05-02T17:41:55.802Z,19.40
2019-05-02T17:44:28.198Z,19.20
2019-05-02T17:47:01.659Z,19.00
2019-05-02T17:49:36.537Z,18.90
2019-05-02T17:52:40.263Z,18.70
2019-05-02T17:55:12.215Z,18.50
2019-05-02T17:57:43.635Z,18.30
2019-05-02T18:00:21.221Z,18.20
2019-05-02T18:02:53.356Z,18.00
2019-05-02T18:05:26.528Z,17.90
2019-05-02T18:07:57.929Z,17.70
2019-05-02T18:10:33.514Z,17.60
2019-05-02T18:13:05.307Z,17.40
2019-05-02T18:15:36.711Z,17.30
2019-05-02T18:18:08.112Z,17.10
2019-05-02T18:20:42.881Z,17.00
2019-05-02T18:23:12.552Z,16.90
2019-05-02T18:25:44.067Z,16.80
2019-05-02T18:28:24.905Z,16.70
2019-05-02T18:30:50.062Z,16.60
2019-05-02T18:33:22.758Z,16.60
2019-05-02T18:35:54.147Z,16.50
2019-05-02T18:38:26.568Z,16.50
2019-05-02T18:41:00.269Z,16.40
2019-05-02T18:43:31.547Z,16.40
2019-05-02T18:46:07.582Z,16.40
2019-05-02T18:48:36.666Z,16.40
2019-05-02T18:51:09.127Z,16.30
2019-05-02T18:53:42.239Z,16.30
2019-05-02T18:56:13.824Z,16.30
2019-05-02T18:58:45.458Z,16.20
2019-05-02T19:01:18.489Z,16.20
2019-05-02T19:03:52.522Z,16.20
2019-05-02T19:06:23.115Z,16.10
2019-05-02T19:08:59.228Z,16.10
2019-05-02T19:11:31.969Z,16.10
2019-05-02T19:14:03.949Z,16.00
2019-05-02T19:16:35.334Z,16.00
2019-05-02T19:19:06.701Z,16.00
2019-05-02T19:21:39.530Z,15.90
2019-05-02T19:24:12.967Z,15.90
2019-05-02T19:26:49.418Z,15.90
2019-05-02T19:29:28.264Z,15.90
2019-05-02T19:31:59.742Z,15.90
2019-05-02T19:34:32.387Z,15.90
2019-05-02T19:37:04.624Z,15.80
2019-05-02T19:39:39.012Z,15.80
2019-05-02T19:42:12.306Z,15.80
2019-05-02T19:44:43.734Z,15.70
2019-05-02T19:47:17.521Z,15.70
2019-05-02T19:49:52.262Z,15.70
2019-05-02T19:52:22.163Z,15.80
2019-05-02T19:54:53.658Z,15.80
2019-05-02T19:57:26.361Z,15.80
2019-05-02T20:00:02.744Z,15.90
2019-05-02T20:02:32.668Z,15.90
2019-05-02T20:05:04.300Z,15.80
2019-05-02T20:07:36.741Z,15.70
2019-05-02T20:10:08.490Z,15.60
2019-05-02T20:12:47.474Z,15.60
2019-05-02T20:15:16.995Z,15.60
2019-05-02T20:17:48.180Z,15.50
2019-05-02T20:20:52.133Z,15.40
2019-05-02T20:23:30.743Z,15.40
2019-05-02T20:25:56.621Z,15.30
2019-05-02T20:28:28.196Z,15.20
2019-05-02T20:30:59.521Z,15.20
2019-05-02T20:33:32.550Z,15.20
2019-05-02T20:36:04.295Z,15.20
2019-05-02T20:38:35.665Z,15.10
2019-05-02T20:41:07.177Z,15.10
2019-05-02T20:43:38.554Z,15.10
2019-05-02T20:46:11.995Z,15.00
2019-05-02T20:48:43.166Z,15.00
2019-05-02T20:51:14.498Z,15.00
2019-05-02T20:53:45.864Z,14.90
2019-05-02T20:56:17.224Z,14.80
2019-05-02T20:58:48.720Z,14.70
2019-05-02T21:01:20.039Z,14.50
2019-05-02T21:03:52.170Z,14.40
2019-05-02T21:06:55.650Z,14.30
2019-05-02T21:09:48.840Z,14.30
2019-05-02T21:12:20.284Z,14.20
2019-05-02T21:14:52.321Z,14.30
2019-05-02T21:17:23.822Z,14.30
2019-05-02T21:19:55.273Z,14.20
2019-05-02T21:22:29.770Z,14.30
2019-05-02T21:25:02.472Z,14.30
2019-05-02T21:27:33.995Z,14.30
2019-05-02T21:30:06.970Z,14.20
2019-05-02T21:32:38.356Z,14.20
2019-05-02T21:35:11.925Z,14.20
2019-05-02T21:37:43.299Z,14.20
2019-05-02T21:40:14.948Z,14.20
2019-05-02T21:42:46.347Z,14.20
2019-05-02T21:45:17.885Z,14.10
2019-05-02T21:47:49.271Z,14.20
2019-05-02T21:50:34.423Z,14.10
2019-05-02T21:53:24.132Z,14.10
2019-05-02T21:56:07.359Z,14.00
2019-05-02T21:58:38.741Z,14.00
2019-05-02T22:01:13.126Z,14.00
2019-05-02T22:03:44.486Z,14.00
2019-05-02T22:06:15.856Z,14.00
2019-05-02T22:08:47.195Z,14.00
2019-05-02T22:11:18.668Z,13.90
2019-05-02T22:13:51.680Z,13.90
2019-05-02T22:16:25.228Z,13.90
2019-05-02T22:18:56.566Z,13.90
2019-05-02T22:21:27.940Z,13.90
2019-05-02T22:24:10.396Z,13.90
2019-05-02T22:26:32.722Z,13.90
2019-05-02T22:29:04.167Z,13.90
2019-05-02T22:31:35.513Z,13.80
2019-05-02T22:34:07.985Z,13.70
2019-05-02T22:36:39.334Z,13.60
2019-05-02T22:39:31.781Z,13.60
2019-05-02T22:42:04.569Z,13.50
2019-05-02T22:44:36.123Z,13.50
2019-05-02T22:47:07.568Z,13.40
2019-05-02T22:49:38.893Z,13.30
2019-05-02T22:52:12.140Z,13.30
2019-05-02T22:54:43.345Z,13.30
2019-05-02T22:57:14.688Z,13.30
2019-05-02T22:59:45.992Z,13.30
2019-05-02T23:02:17.347Z,13.20
2019-05-02T23:04:48.677Z,13.10
2019-05-02T23:07:22.043Z,13.10
2019-05-02T23:09:53.091Z,13.10
2019-05-02T23:12:25.034Z,13.10
2019-05-02T23:14:56.553Z,13.00
2019-05-02T23:17:27.946Z,13.00
2019-05-02T23:19:59.295Z,13.00
2019-05-02T23:22:32.354Z,12.90
2019-05-02T23:25:42.562Z,12.90
2019-05-02T23:28:22.166Z,12.80
2019-05-02T23:30:54.436Z,12.80
2019-05-02T23:33:29.181Z,12.80
2019-05-02T23:36:01.997Z,12.80
2019-05-02T23:38:33.435Z,12.80
2019-05-02T23:41:04.835Z,12.80
2019-05-02T23:43:36.191Z,12.70
2019-05-02T23:46:07.560Z,12.70
2019-05-02T23:48:38.883Z,12.70
2019-05-02T23:51:12.031Z,12.70
2019-05-02T23:53:43.491Z,12.70
2019-05-02T23:56:14.861Z,12.70
2019-05-02T23:58:46.203Z,12.70
